Blue Mound, Kansas
Current Conditions -  °F | °C
As of 7:52 PM on Tuesday 21 Oct 2014 (Local Time) from KCNU Reporting Station
Clear Clear  
Wind Chill: 65°   Ceiling: Unl
Heat Index: 65°   Visibility: 10mi
Dew Point: 55°   Wind: 5mph
Humidity: 70%   Direction: 120°ESE
Pressure: 30.06"   Gusts: NA
Location:  38.09°N, 95.01°W
Report Text: KCNU 220052Z AUTO 12004KT 10SM CLR 18/13 A3006 RMK AO2 SLP177 T01830128
Loading
Personal Weather Stations






























Interactive Weather Map
Tropical Storm Tracking
New forecast layout! Learn more

10-Day Weather Forecast

Advertisements
Track Severe Weather on mobile